sensor_id;sensor_type;location;lat;lon;timestamp;P1;durP1;ratioP1;P2;durP2;ratioP2
63801;SDS011;49949;43.060;25.624;2023-02-28T00:01:38;23.30;;;16.27;;
63801;SDS011;49949;43.060;25.624;2023-02-28T00:04:05;22.63;;;14.70;;
63801;SDS011;49949;43.060;25.624;2023-02-28T00:06:34;22.67;;;14.75;;
63801;SDS011;49949;43.060;25.624;2023-02-28T00:09:01;24.02;;;15.27;;
63801;SDS011;49949;43.060;25.624;2023-02-28T00:14:35;23.75;;;15.52;;
63801;SDS011;49949;43.060;25.624;2023-02-28T00:17:01;26.85;;;16.20;;
63801;SDS011;49949;43.060;25.624;2023-02-28T00:19:39;23.15;;;15.45;;
63801;SDS011;49949;43.060;25.624;2023-02-28T00:22:05;25.27;;;17.02;;
63801;SDS011;49949;43.060;25.624;2023-02-28T00:24:32;24.83;;;16.92;;
63801;SDS011;49949;43.060;25.624;2023-02-28T00:26:58;27.00;;;16.63;;
63801;SDS011;49949;43.060;25.624;2023-02-28T00:29:24;24.63;;;17.13;;
63801;SDS011;49949;43.060;25.624;2023-02-28T00:31:52;24.42;;;16.73;;
63801;SDS011;49949;43.060;25.624;2023-02-28T00:34:53;25.17;;;16.63;;
63801;SDS011;49949;43.060;25.624;2023-02-28T00:37:19;19.98;;;13.20;;
63801;SDS011;49949;43.060;25.624;2023-02-28T00:42:24;20.73;;;14.63;;
63801;SDS011;49949;43.060;25.624;2023-02-28T00:44:57;23.83;;;14.65;;
63801;SDS011;49949;43.060;25.624;2023-02-28T00:47:23;25.58;;;16.10;;
63801;SDS011;49949;43.060;25.624;2023-02-28T00:49:49;24.10;;;16.17;;
63801;SDS011;49949;43.060;25.624;2023-02-28T00:52:14;28.45;;;17.27;;
63801;SDS011;49949;43.060;25.624;2023-02-28T00:54:42;27.30;;;17.77;;
63801;SDS011;49949;43.060;25.624;2023-02-28T00:57:07;28.33;;;18.70;;
63801;SDS011;49949;43.060;25.624;2023-02-28T00:59:40;28.27;;;19.58;;
63801;SDS011;49949;43.060;25.624;2023-02-28T01:02:07;28.40;;;19.55;;
63801;SDS011;49949;43.060;25.624;2023-02-28T01:04:33;29.83;;;19.20;;
63801;SDS011;49949;43.060;25.624;2023-02-28T01:06:59;28.13;;;17.98;;
63801;SDS011;49949;43.060;25.624;2023-02-28T01:09:41;31.65;;;20.13;;
63801;SDS011;49949;43.060;25.624;2023-02-28T01:12:08;33.13;;;20.05;;
63801;SDS011;49949;43.060;25.624;2023-02-28T01:14:45;30.23;;;19.50;;
63801;SDS011;49949;43.060;25.624;2023-02-28T01:17:13;32.83;;;21.10;;
63801;SDS011;49949;43.060;25.624;2023-02-28T01:19:41;35.63;;;22.38;;
63801;SDS011;49949;43.060;25.624;2023-02-28T01:22:55;29.67;;;18.33;;
63801;SDS011;49949;43.060;25.624;2023-02-28T01:25:20;32.58;;;21.10;;
63801;SDS011;49949;43.060;25.624;2023-02-28T01:27:46;29.30;;;19.73;;
63801;SDS011;49949;43.060;25.624;2023-02-28T01:30:27;32.20;;;20.05;;
63801;SDS011;49949;43.060;25.624;2023-02-28T01:32:59;32.40;;;19.88;;
63801;SDS011;49949;43.060;25.624;2023-02-28T01:35:34;33.67;;;21.23;;
63801;SDS011;49949;43.060;25.624;2023-02-28T01:38:01;25.52;;;17.60;;
63801;SDS011;49949;43.060;25.624;2023-02-28T01:40:28;24.23;;;15.38;;
63801;SDS011;49949;43.060;25.624;2023-02-28T01:46:01;29.52;;;17.40;;
63801;SDS011;49949;43.060;25.624;2023-02-28T01:48:28;33.60;;;20.02;;
63801;SDS011;49949;43.060;25.624;2023-02-28T01:50:59;34.57;;;22.37;;
63801;SDS011;49949;43.060;25.624;2023-02-28T01:53:35;37.10;;;21.55;;
63801;SDS011;49949;43.060;25.624;2023-02-28T01:56:20;35.55;;;21.70;;
63801;SDS011;49949;43.060;25.624;2023-02-28T01:58:56;34.90;;;22.50;;
63801;SDS011;49949;43.060;25.624;2023-02-28T02:01:28;39.97;;;22.73;;
63801;SDS011;49949;43.060;25.624;2023-02-28T02:04:09;29.60;;;19.45;;
63801;SDS011;49949;43.060;25.624;2023-02-28T02:06:39;37.08;;;20.38;;
63801;SDS011;49949;43.060;25.624;2023-02-28T02:09:17;32.70;;;19.65;;
63801;SDS011;49949;43.060;25.624;2023-02-28T02:12:25;37.42;;;20.92;;
63801;SDS011;49949;43.060;25.624;2023-02-28T02:15:53;34.83;;;21.42;;
63801;SDS011;49949;43.060;25.624;2023-02-28T02:20:46;31.77;;;18.70;;
63801;SDS011;49949;43.060;25.624;2023-02-28T02:23:27;31.25;;;19.58;;
63801;SDS011;49949;43.060;25.624;2023-02-28T02:31:51;25.48;;;16.02;;
63801;SDS011;49949;43.060;25.624;2023-02-28T02:48:01;30.50;;;17.73;;
63801;SDS011;49949;43.060;25.624;2023-02-28T02:50:35;28.90;;;17.10;;
63801;SDS011;49949;43.060;25.624;2023-02-28T02:53:31;30.65;;;17.48;;
63801;SDS011;49949;43.060;25.624;2023-02-28T02:56:23;27.52;;;16.55;;
63801;SDS011;49949;43.060;25.624;2023-02-28T03:01:56;26.80;;;15.35;;
63801;SDS011;49949;43.060;25.624;2023-02-28T03:04:27;22.48;;;13.68;;
63801;SDS011;49949;43.060;25.624;2023-02-28T03:10:00;22.67;;;12.40;;
63801;SDS011;49949;43.060;25.624;2023-02-28T03:12:50;20.15;;;11.25;;
63801;SDS011;49949;43.060;25.624;2023-02-28T03:15:57;21.23;;;13.07;;
63801;SDS011;49949;43.060;25.624;2023-02-28T03:28:00;18.15;;;10.82;;
63801;SDS011;49949;43.060;25.624;2023-02-28T03:30:47;16.65;;;10.27;;
63801;SDS011;49949;43.060;25.624;2023-02-28T03:36:08;15.95;;;10.63;;
63801;SDS011;49949;43.060;25.624;2023-02-28T03:39:23;16.00;;;9.60;;
63801;SDS011;49949;43.060;25.624;2023-02-28T03:41:59;13.32;;;7.63;;
63801;SDS011;49949;43.060;25.624;2023-02-28T03:44:32;18.17;;;10.68;;
63801;SDS011;49949;43.060;25.624;2023-02-28T03:47:28;15.85;;;9.80;;
63801;SDS011;49949;43.060;25.624;2023-02-28T03:50:02;16.38;;;9.60;;
63801;SDS011;49949;43.060;25.624;2023-02-28T03:52:51;17.40;;;9.80;;
63801;SDS011;49949;43.060;25.624;2023-02-28T03:56:19;24.38;;;13.07;;
63801;SDS011;49949;43.060;25.624;2023-02-28T04:04:04;17.08;;;9.80;;
63801;SDS011;49949;43.060;25.624;2023-02-28T04:06:31;16.77;;;10.07;;
63801;SDS011;49949;43.060;25.624;2023-02-28T04:08:58;16.42;;;10.43;;
63801;SDS011;49949;43.060;25.624;2023-02-28T04:14:04;21.42;;;11.32;;
63801;SDS011;49949;43.060;25.624;2023-02-28T04:16:31;16.27;;;9.25;;
63801;SDS011;49949;43.060;25.624;2023-02-28T04:19:49;20.17;;;10.20;;
63801;SDS011;49949;43.060;25.624;2023-02-28T04:22:28;25.25;;;11.30;;
63801;SDS011;49949;43.060;25.624;2023-02-28T04:27:39;19.20;;;10.60;;
63801;SDS011;49949;43.060;25.624;2023-02-28T04:30:06;21.77;;;10.90;;
63801;SDS011;49949;43.060;25.624;2023-02-28T04:32:32;21.42;;;11.57;;
63801;SDS011;49949;43.060;25.624;2023-02-28T04:34:58;15.48;;;9.95;;
63801;SDS011;49949;43.060;25.624;2023-02-28T04:37:24;15.25;;;8.63;;
63801;SDS011;49949;43.060;25.624;2023-02-28T04:39:53;17.05;;;10.00;;
63801;SDS011;49949;43.060;25.624;2023-02-28T04:42:19;18.10;;;11.57;;
63801;SDS011;49949;43.060;25.624;2023-02-28T04:44:45;14.20;;;9.35;;
63801;SDS011;49949;43.060;25.624;2023-02-28T04:47:13;24.02;;;13.13;;
63801;SDS011;49949;43.060;25.624;2023-02-28T04:49:39;20.27;;;9.43;;
63801;SDS011;49949;43.060;25.624;2023-02-28T04:52:06;15.35;;;9.05;;
63801;SDS011;49949;43.060;25.624;2023-02-28T04:54:32;13.57;;;9.32;;
63801;SDS011;49949;43.060;25.624;2023-02-28T04:56:58;14.10;;;8.77;;
63801;SDS011;49949;43.060;25.624;2023-02-28T04:59:26;14.30;;;9.45;;
63801;SDS011;49949;43.060;25.624;2023-02-28T05:05:53;12.65;;;8.35;;
63801;SDS011;49949;43.060;25.624;2023-02-28T05:08:19;15.23;;;8.52;;
63801;SDS011;49949;43.060;25.624;2023-02-28T05:10:50;20.48;;;9.68;;
63801;SDS011;49949;43.060;25.624;2023-02-28T05:13:16;16.00;;;9.65;;
63801;SDS011;49949;43.060;25.624;2023-02-28T05:15:42;14.30;;;8.80;;
63801;SDS011;49949;43.060;25.624;2023-02-28T05:18:08;14.95;;;8.45;;
63801;SDS011;49949;43.060;25.624;2023-02-28T05:20:45;13.80;;;8.88;;
63801;SDS011;49949;43.060;25.624;2023-02-28T05:23:12;12.73;;;8.02;;
63801;SDS011;49949;43.060;25.624;2023-02-28T05:25:38;16.90;;;8.05;;
63801;SDS011;49949;43.060;25.624;2023-02-28T05:28:10;16.85;;;9.10;;
63801;SDS011;49949;43.060;25.624;2023-02-28T05:30:36;14.20;;;7.85;;
63801;SDS011;49949;43.060;25.624;2023-02-28T05:33:02;13.13;;;8.10;;
63801;SDS011;49949;43.060;25.624;2023-02-28T05:35:40;15.13;;;8.30;;
63801;SDS011;49949;43.060;25.624;2023-02-28T05:38:07;21.23;;;9.68;;
63801;SDS011;49949;43.060;25.624;2023-02-28T05:40:34;17.70;;;8.77;;
63801;SDS011;49949;43.060;25.624;2023-02-28T05:43:00;13.82;;;9.18;;
63801;SDS011;49949;43.060;25.624;2023-02-28T05:45:26;14.63;;;9.02;;
63801;SDS011;49949;43.060;25.624;2023-02-28T05:47:54;13.00;;;8.23;;
63801;SDS011;49949;43.060;25.624;2023-02-28T05:50:21;16.58;;;9.90;;
63801;SDS011;49949;43.060;25.624;2023-02-28T05:52:51;15.60;;;8.15;;
63801;SDS011;49949;43.060;25.624;2023-02-28T05:55:18;16.55;;;8.25;;
63801;SDS011;49949;43.060;25.624;2023-02-28T05:57:44;15.60;;;7.90;;
63801;SDS011;49949;43.060;25.624;2023-02-28T06:00:10;15.07;;;8.20;;
63801;SDS011;49949;43.060;25.624;2023-02-28T06:02:44;14.98;;;8.88;;
63801;SDS011;49949;43.060;25.624;2023-02-28T06:05:57;17.35;;;10.00;;
63801;SDS011;49949;43.060;25.624;2023-02-28T06:08:28;21.15;;;10.88;;
63801;SDS011;49949;43.060;25.624;2023-02-28T06:10:55;14.98;;;8.50;;
63801;SDS011;49949;43.060;25.624;2023-02-28T06:13:22;16.08;;;9.80;;
63801;SDS011;49949;43.060;25.624;2023-02-28T06:15:47;16.08;;;8.88;;
63801;SDS011;49949;43.060;25.624;2023-02-28T06:18:14;13.80;;;8.52;;
63801;SDS011;49949;43.060;25.624;2023-02-28T06:21:19;15.65;;;8.73;;
63801;SDS011;49949;43.060;25.624;2023-02-28T06:23:58;16.17;;;8.60;;
63801;SDS011;49949;43.060;25.624;2023-02-28T06:26:24;14.52;;;8.10;;
63801;SDS011;49949;43.060;25.624;2023-02-28T06:28:53;20.13;;;13.15;;
63801;SDS011;49949;43.060;25.624;2023-02-28T06:31:19;12.57;;;8.38;;
63801;SDS011;49949;43.060;25.624;2023-02-28T06:33:48;11.93;;;7.18;;
63801;SDS011;49949;43.060;25.624;2023-02-28T06:36:15;12.77;;;8.35;;
63801;SDS011;49949;43.060;25.624;2023-02-28T06:38:41;14.43;;;8.68;;
63801;SDS011;49949;43.060;25.624;2023-02-28T06:41:11;19.65;;;9.68;;
63801;SDS011;49949;43.060;25.624;2023-02-28T06:43:38;9.00;;;6.35;;
63801;SDS011;49949;43.060;25.624;2023-02-28T06:46:08;10.98;;;6.25;;
63801;SDS011;49949;43.060;25.624;2023-02-28T06:51:17;9.70;;;6.10;;
63801;SDS011;49949;43.060;25.624;2023-02-28T06:54:25;9.07;;;5.47;;
63801;SDS011;49949;43.060;25.624;2023-02-28T06:57:00;9.40;;;5.70;;
63801;SDS011;49949;43.060;25.624;2023-02-28T06:59:37;10.77;;;6.53;;
63801;SDS011;49949;43.060;25.624;2023-02-28T07:02:05;8.60;;;6.03;;
63801;SDS011;49949;43.060;25.624;2023-02-28T07:04:33;11.35;;;6.20;;
63801;SDS011;49949;43.060;25.624;2023-02-28T07:06:59;10.65;;;6.45;;
63801;SDS011;49949;43.060;25.624;2023-02-28T07:09:25;8.85;;;6.03;;
63801;SDS011;49949;43.060;25.624;2023-02-28T07:11:55;12.13;;;7.10;;
63801;SDS011;49949;43.060;25.624;2023-02-28T07:14:26;13.35;;;7.25;;
63801;SDS011;49949;43.060;25.624;2023-02-28T07:16:53;13.75;;;6.90;;
63801;SDS011;49949;43.060;25.624;2023-02-28T07:19:19;16.20;;;7.60;;
63801;SDS011;49949;43.060;25.624;2023-02-28T07:21:47;14.13;;;7.32;;
63801;SDS011;49949;43.060;25.624;2023-02-28T07:24:15;13.18;;;6.65;;
63801;SDS011;49949;43.060;25.624;2023-02-28T07:26:43;11.43;;;7.65;;
63801;SDS011;49949;43.060;25.624;2023-02-28T07:29:10;13.18;;;5.03;;
63801;SDS011;49949;43.060;25.624;2023-02-28T07:34:35;15.43;;;6.00;;
63801;SDS011;49949;43.060;25.624;2023-02-28T07:37:07;11.95;;;6.35;;
63801;SDS011;49949;43.060;25.624;2023-02-28T07:39:39;9.77;;;5.03;;
63801;SDS011;49949;43.060;25.624;2023-02-28T07:42:09;9.85;;;4.90;;
63801;SDS011;49949;43.060;25.624;2023-02-28T07:44:40;9.02;;;5.05;;
63801;SDS011;49949;43.060;25.624;2023-02-28T07:47:18;16.50;;;7.43;;
63801;SDS011;49949;43.060;25.624;2023-02-28T07:50:41;11.93;;;5.45;;
63801;SDS011;49949;43.060;25.624;2023-02-28T07:53:07;7.18;;;4.85;;
63801;SDS011;49949;43.060;25.624;2023-02-28T07:55:36;12.00;;;5.13;;
63801;SDS011;49949;43.060;25.624;2023-02-28T07:58:04;7.43;;;5.32;;
63801;SDS011;49949;43.060;25.624;2023-02-28T08:00:30;12.82;;;5.88;;
63801;SDS011;49949;43.060;25.624;2023-02-28T08:02:57;11.50;;;5.50;;
63801;SDS011;49949;43.060;25.624;2023-02-28T08:05:23;11.57;;;4.85;;
63801;SDS011;49949;43.060;25.624;2023-02-28T08:07:51;13.10;;;5.20;;
63801;SDS011;49949;43.060;25.624;2023-02-28T08:10:18;10.52;;;5.20;;
63801;SDS011;49949;43.060;25.624;2023-02-28T08:12:46;11.88;;;5.57;;
63801;SDS011;49949;43.060;25.624;2023-02-28T08:15:12;11.10;;;5.75;;
63801;SDS011;49949;43.060;25.624;2023-02-28T08:20:24;12.65;;;5.53;;
63801;SDS011;49949;43.060;25.624;2023-02-28T08:23:35;14.57;;;5.93;;
63801;SDS011;49949;43.060;25.624;2023-02-28T08:26:01;14.85;;;6.53;;
63801;SDS011;49949;43.060;25.624;2023-02-28T08:28:28;10.30;;;5.57;;
63801;SDS011;49949;43.060;25.624;2023-02-28T08:30:55;9.85;;;4.95;;
63801;SDS011;49949;43.060;25.624;2023-02-28T08:33:24;10.20;;;6.65;;
63801;SDS011;49949;43.060;25.624;2023-02-28T08:36:32;11.05;;;5.88;;
63801;SDS011;49949;43.060;25.624;2023-02-28T08:39:00;17.13;;;5.90;;
63801;SDS011;49949;43.060;25.624;2023-02-28T08:41:38;7.72;;;4.68;;
63801;SDS011;49949;43.060;25.624;2023-02-28T08:44:11;9.30;;;6.30;;
63801;SDS011;49949;43.060;25.624;2023-02-28T08:46:49;10.88;;;5.93;;
63801;SDS011;49949;43.060;25.624;2023-02-28T08:49:19;11.48;;;6.63;;
63801;SDS011;49949;43.060;25.624;2023-02-28T08:51:46;13.63;;;5.93;;
63801;SDS011;49949;43.060;25.624;2023-02-28T08:54:12;13.63;;;7.72;;
63801;SDS011;49949;43.060;25.624;2023-02-28T08:56:39;13.38;;;6.60;;
63801;SDS011;49949;43.060;25.624;2023-02-28T08:59:05;12.35;;;6.38;;
63801;SDS011;49949;43.060;25.624;2023-02-28T09:01:31;13.52;;;8.60;;
63801;SDS011;49949;43.060;25.624;2023-02-28T09:03:57;11.18;;;5.15;;
63801;SDS011;49949;43.060;25.624;2023-02-28T09:06:34;8.55;;;6.60;;
63801;SDS011;49949;43.060;25.624;2023-02-28T09:09:06;14.15;;;8.45;;
63801;SDS011;49949;43.060;25.624;2023-02-28T09:11:35;15.52;;;8.18;;
63801;SDS011;49949;43.060;25.624;2023-02-28T09:14:02;17.38;;;7.60;;
63801;SDS011;49949;43.060;25.624;2023-02-28T09:16:29;10.82;;;7.68;;
63801;SDS011;49949;43.060;25.624;2023-02-28T09:18:57;13.00;;;7.97;;
63801;SDS011;49949;43.060;25.624;2023-02-28T09:21:29;12.02;;;8.45;;
63801;SDS011;49949;43.060;25.624;2023-02-28T09:23:56;11.35;;;8.32;;
63801;SDS011;49949;43.060;25.624;2023-02-28T09:26:23;13.40;;;8.07;;
63801;SDS011;49949;43.060;25.624;2023-02-28T09:28:57;14.35;;;8.38;;
63801;SDS011;49949;43.060;25.624;2023-02-28T09:31:25;13.88;;;7.80;;
63801;SDS011;49949;43.060;25.624;2023-02-28T09:33:55;13.63;;;8.50;;
63801;SDS011;49949;43.060;25.624;2023-02-28T09:36:30;17.02;;;7.68;;
63801;SDS011;49949;43.060;25.624;2023-02-28T09:39:06;14.45;;;7.53;;
63801;SDS011;49949;43.060;25.624;2023-02-28T09:44:40;16.67;;;7.65;;
63801;SDS011;49949;43.060;25.624;2023-02-28T09:47:13;17.83;;;7.70;;
63801;SDS011;49949;43.060;25.624;2023-02-28T09:49:56;18.80;;;7.47;;
63801;SDS011;49949;43.060;25.624;2023-02-28T09:52:49;13.38;;;7.55;;
63801;SDS011;49949;43.060;25.624;2023-02-28T09:58:40;9.02;;;7.22;;
63801;SDS011;49949;43.060;25.624;2023-02-28T10:01:23;12.38;;;6.93;;
63801;SDS011;49949;43.060;25.624;2023-02-28T10:04:00;13.60;;;7.22;;
63801;SDS011;49949;43.060;25.624;2023-02-28T10:06:39;10.95;;;6.68;;
63801;SDS011;49949;43.060;25.624;2023-02-28T10:12:18;12.73;;;6.75;;
63801;SDS011;49949;43.060;25.624;2023-02-28T10:14:52;14.93;;;7.47;;
63801;SDS011;49949;43.060;25.624;2023-02-28T10:17:28;12.38;;;7.10;;
63801;SDS011;49949;43.060;25.624;2023-02-28T10:20:19;12.35;;;7.45;;
63801;SDS011;49949;43.060;25.624;2023-02-28T10:25:38;18.10;;;7.63;;
63801;SDS011;49949;43.060;25.624;2023-02-28T10:28:12;17.67;;;8.13;;
63801;SDS011;49949;43.060;25.624;2023-02-28T10:30:52;15.05;;;7.10;;
63801;SDS011;49949;43.060;25.624;2023-02-28T10:33:24;18.83;;;6.72;;
63801;SDS011;49949;43.060;25.624;2023-02-28T10:35:51;16.85;;;7.20;;
63801;SDS011;49949;43.060;25.624;2023-02-28T10:38:20;17.20;;;7.35;;
63801;SDS011;49949;43.060;25.624;2023-02-28T10:40:49;14.43;;;7.27;;
63801;SDS011;49949;43.060;25.624;2023-02-28T10:46:00;11.45;;;6.88;;
63801;SDS011;49949;43.060;25.624;2023-02-28T10:48:50;12.18;;;6.47;;
63801;SDS011;49949;43.060;25.624;2023-02-28T10:51:26;12.00;;;6.63;;
63801;SDS011;49949;43.060;25.624;2023-02-28T10:54:14;20.75;;;8.27;;
63801;SDS011;49949;43.060;25.624;2023-02-28T10:56:46;19.50;;;10.95;;
63801;SDS011;49949;43.060;25.624;2023-02-28T10:59:34;16.17;;;7.72;;
63801;SDS011;49949;43.060;25.624;2023-02-28T11:02:01;14.27;;;7.45;;
63801;SDS011;49949;43.060;25.624;2023-02-28T11:04:54;11.00;;;7.28;;
63801;SDS011;49949;43.060;25.624;2023-02-28T11:07:23;21.73;;;7.90;;
63801;SDS011;49949;43.060;25.624;2023-02-28T11:09:53;22.20;;;7.85;;
63801;SDS011;49949;43.060;25.624;2023-02-28T11:12:22;14.15;;;7.43;;
63801;SDS011;49949;43.060;25.624;2023-02-28T11:14:56;17.38;;;7.60;;
63801;SDS011;49949;43.060;25.624;2023-02-28T11:17:27;23.30;;;8.13;;
63801;SDS011;49949;43.060;25.624;2023-02-28T11:20:02;23.13;;;8.38;;
63801;SDS011;49949;43.060;25.624;2023-02-28T11:22:37;19.58;;;7.82;;
63801;SDS011;49949;43.060;25.624;2023-02-28T11:25:21;15.27;;;7.68;;
63801;SDS011;49949;43.060;25.624;2023-02-28T11:27:58;22.25;;;8.07;;
63801;SDS011;49949;43.060;25.624;2023-02-28T11:33:25;17.48;;;8.32;;
63801;SDS011;49949;43.060;25.624;2023-02-28T11:35:51;22.80;;;8.20;;
63801;SDS011;49949;43.060;25.624;2023-02-28T11:38:28;21.65;;;11.02;;
63801;SDS011;49949;43.060;25.624;2023-02-28T11:43:53;18.77;;;9.07;;
63801;SDS011;49949;43.060;25.624;2023-02-28T11:46:41;18.05;;;8.68;;
63801;SDS011;49949;43.060;25.624;2023-02-28T11:49:38;21.10;;;9.18;;
63801;SDS011;49949;43.060;25.624;2023-02-28T11:52:53;24.83;;;11.80;;
63801;SDS011;49949;43.060;25.624;2023-02-28T11:55:27;24.58;;;11.15;;
63801;SDS011;49949;43.060;25.624;2023-02-28T12:01:18;16.17;;;11.00;;
63801;SDS011;49949;43.060;25.624;2023-02-28T12:06:50;24.95;;;17.60;;
63801;SDS011;49949;43.060;25.624;2023-02-28T12:23:09;89.40;;;17.98;;
63801;SDS011;49949;43.060;25.624;2023-02-28T12:26:11;40.80;;;16.25;;
63801;SDS011;49949;43.060;25.624;2023-02-28T12:31:56;42.08;;;17.58;;
63801;SDS011;49949;43.060;25.624;2023-02-28T12:34:37;37.03;;;17.25;;
63801;SDS011;49949;43.060;25.624;2023-02-28T12:37:27;40.17;;;18.63;;
63801;SDS011;49949;43.060;25.624;2023-02-28T12:40:26;20.00;;;12.13;;
63801;SDS011;49949;43.060;25.624;2023-02-28T12:43:07;19.73;;;11.70;;
63801;SDS011;49949;43.060;25.624;2023-02-28T12:45:50;24.45;;;14.00;;
63801;SDS011;49949;43.060;25.624;2023-02-28T12:51:08;40.58;;;20.45;;
63801;SDS011;49949;43.060;25.624;2023-02-28T13:04:56;26.45;;;12.07;;
63801;SDS011;49949;43.060;25.624;2023-02-28T13:07:51;21.88;;;12.27;;
63801;SDS011;49949;43.060;25.624;2023-02-28T13:10:48;28.52;;;16.52;;
63801;SDS011;49949;43.060;25.624;2023-02-28T13:13:37;24.83;;;14.15;;
63801;SDS011;49949;43.060;25.624;2023-02-28T13:16:06;36.33;;;21.80;;
63801;SDS011;49949;43.060;25.624;2023-02-28T13:18:38;46.30;;;22.60;;
63801;SDS011;49949;43.060;25.624;2023-02-28T13:21:08;36.38;;;18.17;;
63801;SDS011;49949;43.060;25.624;2023-02-28T13:43:06;20.25;;;12.88;;
63801;SDS011;49949;43.060;25.624;2023-02-28T13:45:34;27.17;;;15.88;;
63801;SDS011;49949;43.060;25.624;2023-02-28T13:48:17;29.48;;;16.35;;
63801;SDS011;49949;43.060;25.624;2023-02-28T13:50:57;27.48;;;16.60;;
63801;SDS011;49949;43.060;25.624;2023-02-28T13:53:39;34.10;;;18.70;;
63801;SDS011;49949;43.060;25.624;2023-02-28T13:56:40;32.03;;;18.48;;
63801;SDS011;49949;43.060;25.624;2023-02-28T14:02:23;40.60;;;23.23;;
63801;SDS011;49949;43.060;25.624;2023-02-28T14:07:53;35.20;;;19.58;;
63801;SDS011;49949;43.060;25.624;2023-02-28T14:10:37;32.40;;;18.52;;
63801;SDS011;49949;43.060;25.624;2023-02-28T14:19:15;32.75;;;20.30;;
63801;SDS011;49949;43.060;25.624;2023-02-28T14:27:11;35.05;;;21.10;;
63801;SDS011;49949;43.060;25.624;2023-02-28T14:38:29;38.88;;;23.30;;
63801;SDS011;49949;43.060;25.624;2023-02-28T14:41:16;43.17;;;24.90;;
63801;SDS011;49949;43.060;25.624;2023-02-28T14:43:59;35.17;;;21.27;;
63801;SDS011;49949;43.060;25.624;2023-02-28T14:46:33;27.45;;;16.90;;
63801;SDS011;49949;43.060;25.624;2023-02-28T14:49:06;32.28;;;18.55;;
63801;SDS011;49949;43.060;25.624;2023-02-28T14:51:38;30.98;;;18.52;;
63801;SDS011;49949;43.060;25.624;2023-02-28T14:54:06;26.33;;;15.60;;
63801;SDS011;49949;43.060;25.624;2023-02-28T14:56:48;31.85;;;19.05;;
63801;SDS011;49949;43.060;25.624;2023-02-28T15:00:20;42.03;;;23.50;;
63801;SDS011;49949;43.060;25.624;2023-02-28T15:03:40;23.17;;;14.43;;
63801;SDS011;49949;43.060;25.624;2023-02-28T15:06:16;21.90;;;13.68;;
63801;SDS011;49949;43.060;25.624;2023-02-28T15:08:43;26.83;;;15.20;;
63801;SDS011;49949;43.060;25.624;2023-02-28T15:11:14;30.25;;;17.02;;
63801;SDS011;49949;43.060;25.624;2023-02-28T15:18:57;23.15;;;13.65;;
63801;SDS011;49949;43.060;25.624;2023-02-28T15:21:32;19.27;;;12.88;;
63801;SDS011;49949;43.060;25.624;2023-02-28T15:24:08;24.00;;;14.93;;
63801;SDS011;49949;43.060;25.624;2023-02-28T15:27:07;22.63;;;12.85;;
63801;SDS011;49949;43.060;25.624;2023-02-28T15:29:55;22.20;;;14.52;;
63801;SDS011;49949;43.060;25.624;2023-02-28T15:32:34;24.08;;;14.27;;
63801;SDS011;49949;43.060;25.624;2023-02-28T15:35:19;20.48;;;13.27;;
63801;SDS011;49949;43.060;25.624;2023-02-28T15:40:43;15.40;;;10.68;;
63801;SDS011;49949;43.060;25.624;2023-02-28T15:46:07;22.17;;;11.57;;
63801;SDS011;49949;43.060;25.624;2023-02-28T15:48:47;21.20;;;11.00;;
63801;SDS011;49949;43.060;25.624;2023-02-28T15:51:24;17.65;;;10.90;;
63801;SDS011;49949;43.060;25.624;2023-02-28T15:54:10;22.30;;;13.23;;
63801;SDS011;49949;43.060;25.624;2023-02-28T15:56:46;28.95;;;16.65;;
63801;SDS011;49949;43.060;25.624;2023-02-28T15:59:18;25.38;;;14.48;;
63801;SDS011;49949;43.060;25.624;2023-02-28T16:02:01;20.13;;;12.23;;
63801;SDS011;49949;43.060;25.624;2023-02-28T16:07:24;17.80;;;10.43;;
63801;SDS011;49949;43.060;25.624;2023-02-28T16:09:50;20.00;;;11.98;;
63801;SDS011;49949;43.060;25.624;2023-02-28T16:12:16;18.63;;;10.73;;
63801;SDS011;49949;43.060;25.624;2023-02-28T16:14:51;14.82;;;9.73;;
63801;SDS011;49949;43.060;25.624;2023-02-28T16:17:20;15.77;;;9.32;;
63801;SDS011;49949;43.060;25.624;2023-02-28T16:19:50;22.30;;;11.57;;
63801;SDS011;49949;43.060;25.624;2023-02-28T16:22:15;17.85;;;10.02;;
63801;SDS011;49949;43.060;25.624;2023-02-28T16:24:42;25.90;;;15.07;;
63801;SDS011;49949;43.060;25.624;2023-02-28T16:27:16;16.13;;;9.63;;
63801;SDS011;49949;43.060;25.624;2023-02-28T16:30:09;13.45;;;8.73;;
63801;SDS011;49949;43.060;25.624;2023-02-28T16:32:44;20.50;;;9.65;;
63801;SDS011;49949;43.060;25.624;2023-02-28T16:35:10;14.65;;;9.13;;
63801;SDS011;49949;43.060;25.624;2023-02-28T16:37:46;22.02;;;12.45;;
63801;SDS011;49949;43.060;25.624;2023-02-28T16:40:15;14.40;;;9.13;;
63801;SDS011;49949;43.060;25.624;2023-02-28T16:42:43;14.07;;;8.45;;
63801;SDS011;49949;43.060;25.624;2023-02-28T16:45:23;17.92;;;9.00;;
63801;SDS011;49949;43.060;25.624;2023-02-28T16:47:55;19.27;;;9.25;;
63801;SDS011;49949;43.060;25.624;2023-02-28T16:50:25;15.05;;;8.48;;
63801;SDS011;49949;43.060;25.624;2023-02-28T16:52:53;13.23;;;7.75;;
63801;SDS011;49949;43.060;25.624;2023-02-28T16:55:22;10.95;;;7.60;;
63801;SDS011;49949;43.060;25.624;2023-02-28T16:57:56;11.07;;;6.90;;
63801;SDS011;49949;43.060;25.624;2023-02-28T17:00:26;10.75;;;7.30;;
63801;SDS011;49949;43.060;25.624;2023-02-28T17:02:53;12.63;;;7.82;;
63801;SDS011;49949;43.060;25.624;2023-02-28T17:05:20;15.70;;;9.20;;
63801;SDS011;49949;43.060;25.624;2023-02-28T17:07:56;15.57;;;9.13;;
63801;SDS011;49949;43.060;25.624;2023-02-28T17:10:34;15.63;;;7.70;;
63801;SDS011;49949;43.060;25.624;2023-02-28T17:13:00;10.98;;;6.68;;
63801;SDS011;49949;43.060;25.624;2023-02-28T17:15:26;10.50;;;7.20;;
63801;SDS011;49949;43.060;25.624;2023-02-28T17:18:17;13.75;;;7.22;;
63801;SDS011;49949;43.060;25.624;2023-02-28T17:20:59;20.13;;;8.85;;
63801;SDS011;49949;43.060;25.624;2023-02-28T17:23:27;15.45;;;7.93;;
63801;SDS011;49949;43.060;25.624;2023-02-28T17:25:57;16.80;;;8.88;;
63801;SDS011;49949;43.060;25.624;2023-02-28T17:28:22;18.80;;;8.20;;
63801;SDS011;49949;43.060;25.624;2023-02-28T17:31:00;15.20;;;7.85;;
63801;SDS011;49949;43.060;25.624;2023-02-28T17:34:22;17.35;;;7.57;;
63801;SDS011;49949;43.060;25.624;2023-02-28T17:36:49;20.25;;;8.50;;
63801;SDS011;49949;43.060;25.624;2023-02-28T17:39:24;15.55;;;8.65;;
63801;SDS011;49949;43.060;25.624;2023-02-28T17:41:54;28.45;;;8.75;;
63801;SDS011;49949;43.060;25.624;2023-02-28T17:44:21;15.57;;;7.22;;
63801;SDS011;49949;43.060;25.624;2023-02-28T17:46:47;10.38;;;6.15;;
63801;SDS011;49949;43.060;25.624;2023-02-28T17:49:14;9.55;;;6.25;;
63801;SDS011;49949;43.060;25.624;2023-02-28T17:51:41;12.00;;;6.45;;
63801;SDS011;49949;43.060;25.624;2023-02-28T17:54:06;18.40;;;6.78;;
63801;SDS011;49949;43.060;25.624;2023-02-28T17:56:32;9.82;;;6.00;;
63801;SDS011;49949;43.060;25.624;2023-02-28T17:59:03;8.73;;;5.82;;
63801;SDS011;49949;43.060;25.624;2023-02-28T18:01:30;23.95;;;7.63;;
63801;SDS011;49949;43.060;25.624;2023-02-28T18:03:56;11.13;;;6.55;;
63801;SDS011;49949;43.060;25.624;2023-02-28T18:06:29;8.50;;;6.30;;
63801;SDS011;49949;43.060;25.624;2023-02-28T18:09:16;16.35;;;6.72;;